sensor_id;sensor_type;location;lat;lon;timestamp;pressure;altitude;pressure_sealevel;temperature;humidity
74181;BME280;62544;50.826;14.354;2023-03-15T00:03:18;98426.05;;;1.06;80.09
74181;BME280;62544;50.826;14.354;2023-03-15T00:07:42;98432.36;;;1.11;80.68
74181;BME280;62544;50.826;14.354;2023-03-15T00:12:06;98436.63;;;1.15;79.06
74181;BME280;62544;50.826;14.354;2023-03-15T00:16:30;98441.46;;;1.14;83.42
74181;BME280;62544;50.826;14.354;2023-03-15T00:20:54;98445.43;;;1.14;82.75
74181;BME280;62544;50.826;14.354;2023-03-15T00:25:18;98449.06;;;1.10;83.77
74181;BME280;62544;50.826;14.354;2023-03-15T00:29:42;98452.40;;;1.07;81.75
74181;BME280;62544;50.826;14.354;2023-03-15T00:34:06;98455.44;;;1.04;82.97
74181;BME280;62544;50.826;14.354;2023-03-15T00:38:30;98458.28;;;1.00;81.94
74181;BME280;62544;50.826;14.354;2023-03-15T00:42:54;98459.56;;;0.94;83.72
74181;BME280;62544;50.826;14.354;2023-03-15T00:47:18;98462.27;;;0.90;83.43
74181;BME280;62544;50.826;14.354;2023-03-15T00:51:42;98464.64;;;0.93;82.53
74181;BME280;62544;50.826;14.354;2023-03-15T00:56:07;98466.64;;;1.04;81.72
74181;BME280;62544;50.826;14.354;2023-03-15T01:00:32;98469.09;;;1.12;81.41
74181;BME280;62544;50.826;14.354;2023-03-15T01:04:54;98470.98;;;1.15;79.55
74181;BME280;62544;50.826;14.354;2023-03-15T01:09:18;98472.12;;;1.16;83.88
74181;BME280;62544;50.826;14.354;2023-03-15T01:13:42;98475.41;;;1.12;84.17
74181;BME280;62544;50.826;14.354;2023-03-15T01:18:06;98478.67;;;1.09;84.08
74181;BME280;62544;50.826;14.354;2023-03-15T01:22:30;98482.40;;;1.00;85.98
74181;BME280;62544;50.826;14.354;2023-03-15T01:26:54;98485.17;;;0.96;87.29
74181;BME280;62544;50.826;14.354;2023-03-15T01:31:22;98487.86;;;0.93;88.02
74181;BME280;62544;50.826;14.354;2023-03-15T01:35:42;98490.61;;;0.83;90.42
74181;BME280;62544;50.826;14.354;2023-03-15T01:40:07;98494.93;;;0.78;86.97
74181;BME280;62544;50.826;14.354;2023-03-15T01:48:56;98508.17;;;0.72;87.41
74181;BME280;62544;50.826;14.354;2023-03-15T01:53:18;98514.61;;;0.74;85.92
74181;BME280;62544;50.826;14.354;2023-03-15T01:57:52;98522.25;;;0.77;86.30
74181;BME280;62544;50.826;14.354;2023-03-15T02:02:06;98527.22;;;0.79;86.01
74181;BME280;62544;50.826;14.354;2023-03-15T02:06:30;98531.23;;;0.81;85.74
74181;BME280;62544;50.826;14.354;2023-03-15T02:10:55;98533.87;;;0.82;85.87
74181;BME280;62544;50.826;14.354;2023-03-15T02:15:18;98536.21;;;0.79;87.65
74181;BME280;62544;50.826;14.354;2023-03-15T02:19:48;98539.20;;;0.72;87.82
74181;BME280;62544;50.826;14.354;2023-03-15T02:28:30;98545.94;;;0.58;88.45
74181;BME280;62544;50.826;14.354;2023-03-15T02:32:54;98548.51;;;0.48;87.88
74181;BME280;62544;50.826;14.354;2023-03-15T02:37:18;98550.59;;;0.40;88.57
74181;BME280;62544;50.826;14.354;2023-03-15T02:41:46;98553.38;;;0.28;88.67
74181;BME280;62544;50.826;14.354;2023-03-15T02:46:06;98556.13;;;0.23;87.83
74181;BME280;62544;50.826;14.354;2023-03-15T02:50:30;98560.10;;;0.19;88.26
74181;BME280;62544;50.826;14.354;2023-03-15T02:54:54;98564.61;;;0.12;89.43
74181;BME280;62544;50.826;14.354;2023-03-15T02:59:18;98569.12;;;0.04;91.36
74181;BME280;62544;50.826;14.354;2023-03-15T03:03:42;98574.16;;;0.00;89.99
74181;BME280;62544;50.826;14.354;2023-03-15T03:08:06;98577.84;;;0.02;90.28
74181;BME280;62544;50.826;14.354;2023-03-15T03:12:30;98580.41;;;0.07;89.12
74181;BME280;62544;50.826;14.354;2023-03-15T03:16:54;98585.46;;;0.13;88.90
74181;BME280;62544;50.826;14.354;2023-03-15T03:21:18;98589.81;;;0.19;88.75
74181;BME280;62544;50.826;14.354;2023-03-15T03:25:42;98594.41;;;0.20;90.04
74181;BME280;62544;50.826;14.354;2023-03-15T03:30:07;98600.86;;;0.20;90.48
74181;BME280;62544;50.826;14.354;2023-03-15T03:34:30;98607.72;;;0.21;90.25
74181;BME280;62544;50.826;14.354;2023-03-15T03:38:54;98616.91;;;0.26;89.01
74181;BME280;62544;50.826;14.354;2023-03-15T03:43:18;98629.61;;;0.30;88.86
74181;BME280;62544;50.826;14.354;2023-03-15T03:47:42;98640.38;;;0.31;89.04
74181;BME280;62544;50.826;14.354;2023-03-15T03:52:06;98651.21;;;0.26;91.15
74181;BME280;62544;50.826;14.354;2023-03-15T03:56:30;98659.63;;;0.27;89.76
74181;BME280;62544;50.826;14.354;2023-03-15T04:00:54;98667.16;;;0.28;89.31
74181;BME280;62544;50.826;14.354;2023-03-15T04:05:18;98673.21;;;0.28;89.28
74181;BME280;62544;50.826;14.354;2023-03-15T04:09:42;98676.23;;;0.28;88.96
74181;BME280;62544;50.826;14.354;2023-03-15T04:14:06;98680.06;;;0.28;88.45
74181;BME280;62544;50.826;14.354;2023-03-15T04:18:30;98684.15;;;0.28;87.96
74181;BME280;62544;50.826;14.354;2023-03-15T04:22:54;98689.03;;;0.27;88.35
74181;BME280;62544;50.826;14.354;2023-03-15T04:27:18;98693.01;;;0.25;88.28
74181;BME280;62544;50.826;14.354;2023-03-15T04:31:42;98698.83;;;0.17;89.37
74181;BME280;62544;50.826;14.354;2023-03-15T04:36:06;98705.58;;;0.14;88.65
74181;BME280;62544;50.826;14.354;2023-03-15T04:40:30;98712.98;;;0.12;88.65
74181;BME280;62544;50.826;14.354;2023-03-15T04:44:54;98720.40;;;0.09;88.65
74181;BME280;62544;50.826;14.354;2023-03-15T04:49:18;98727.56;;;0.05;88.07
74181;BME280;62544;50.826;14.354;2023-03-15T04:53:42;98734.61;;;0.02;87.85
74181;BME280;62544;50.826;14.354;2023-03-15T04:58:06;98741.86;;;-0.01;88.41
74181;BME280;62544;50.826;14.354;2023-03-15T05:02:30;98749.16;;;-0.06;88.91
74181;BME280;62544;50.826;14.354;2023-03-15T05:06:54;98756.80;;;-0.08;88.66
74181;BME280;62544;50.826;14.354;2023-03-15T05:11:18;98763.44;;;-0.07;88.15
74181;BME280;62544;50.826;14.354;2023-03-15T05:15:42;98769.32;;;-0.07;87.87
74181;BME280;62544;50.826;14.354;2023-03-15T05:20:06;98774.77;;;-0.09;87.60
74181;BME280;62544;50.826;14.354;2023-03-15T05:24:30;98780.00;;;-0.14;88.26
74181;BME280;62544;50.826;14.354;2023-03-15T05:28:54;98787.87;;;-0.18;89.64
74181;BME280;62544;50.826;14.354;2023-03-15T05:33:18;98796.46;;;-0.24;89.02
74181;BME280;62544;50.826;14.354;2023-03-15T05:37:42;98802.61;;;-0.29;88.78
74181;BME280;62544;50.826;14.354;2023-03-15T05:42:06;98810.02;;;-0.35;89.25
74181;BME280;62544;50.826;14.354;2023-03-15T05:46:30;98816.60;;;-0.39;89.39
74181;BME280;62544;50.826;14.354;2023-03-15T05:50:54;98822.60;;;-0.41;88.61
74181;BME280;62544;50.826;14.354;2023-03-15T05:55:18;98828.85;;;-0.43;89.45
74181;BME280;62544;50.826;14.354;2023-03-15T05:59:42;98836.24;;;-0.41;89.03
74181;BME280;62544;50.826;14.354;2023-03-15T06:04:06;98843.64;;;-0.37;89.06
74181;BME280;62544;50.826;14.354;2023-03-15T06:08:30;98849.94;;;-0.29;88.98
74181;BME280;62544;50.826;14.354;2023-03-15T06:12:53;98855.02;;;-0.21;88.69
74181;BME280;62544;50.826;14.354;2023-03-15T06:17:18;98862.08;;;-0.12;88.97
74181;BME280;62544;50.826;14.354;2023-03-15T06:21:41;98868.79;;;-0.03;88.83
74181;BME280;62544;50.826;14.354;2023-03-15T06:26:05;98875.83;;;0.04;88.92
74181;BME280;62544;50.826;14.354;2023-03-15T06:30:29;98882.61;;;0.10;89.18
74181;BME280;62544;50.826;14.354;2023-03-15T06:34:54;98889.78;;;0.15;89.98
74181;BME280;62544;50.826;14.354;2023-03-15T06:39:18;98896.19;;;0.26;90.24
74181;BME280;62544;50.826;14.354;2023-03-15T06:43:42;98900.42;;;0.46;89.19
74181;BME280;62544;50.826;14.354;2023-03-15T06:48:06;98905.33;;;0.71;89.73
74181;BME280;62544;50.826;14.354;2023-03-15T06:52:29;98910.11;;;1.08;93.36
74181;BME280;62544;50.826;14.354;2023-03-15T06:56:53;98914.98;;;1.54;87.97
74181;BME280;62544;50.826;14.354;2023-03-15T07:01:17;98918.91;;;1.95;83.03
74181;BME280;62544;50.826;14.354;2023-03-15T07:05:41;98923.36;;;2.30;84.95
74181;BME280;62544;50.826;14.354;2023-03-15T07:10:06;98927.78;;;2.78;83.15
74181;BME280;62544;50.826;14.354;2023-03-15T07:14:29;98930.24;;;3.30;78.79
74181;BME280;62544;50.826;14.354;2023-03-15T07:18:53;98932.68;;;3.77;75.78
74181;BME280;62544;50.826;14.354;2023-03-15T07:23:17;98935.49;;;4.15;74.47
74181;BME280;62544;50.826;14.354;2023-03-15T07:27:41;98937.52;;;4.46;72.89
74181;BME280;62544;50.826;14.354;2023-03-15T07:32:05;98940.45;;;4.64;74.56
74181;BME280;62544;50.826;14.354;2023-03-15T07:36:29;98941.85;;;4.87;72.01
74181;BME280;62544;50.826;14.354;2023-03-15T07:40:53;98943.78;;;5.16;69.47
74181;BME280;62544;50.826;14.354;2023-03-15T07:45:18;98943.92;;;5.45;67.31
74181;BME280;62544;50.826;14.354;2023-03-15T07:49:41;98944.61;;;5.62;65.05
74181;BME280;62544;50.826;14.354;2023-03-15T07:54:05;98946.92;;;5.71;65.71
74181;BME280;62544;50.826;14.354;2023-03-15T07:58:29;98949.50;;;5.85;64.71
74181;BME280;62544;50.826;14.354;2023-03-15T08:02:53;98950.94;;;5.91;59.83
74181;BME280;62544;50.826;14.354;2023-03-15T08:07:17;98951.37;;;5.87;58.78
74181;BME280;62544;50.826;14.354;2023-03-15T08:11:41;98951.70;;;5.78;56.93
74181;BME280;62544;50.826;14.354;2023-03-15T08:16:06;98954.10;;;5.71;56.75
74181;BME280;62544;50.826;14.354;2023-03-15T08:20:29;98956.25;;;5.76;55.23
74181;BME280;62544;50.826;14.354;2023-03-15T08:24:53;98957.12;;;5.88;53.78
74181;BME280;62544;50.826;14.354;2023-03-15T08:29:17;98959.81;;;5.93;56.28
74181;BME280;62544;50.826;14.354;2023-03-15T08:33:41;98963.28;;;5.95;53.26
74181;BME280;62544;50.826;14.354;2023-03-15T08:38:05;98965.37;;;5.94;50.85
74181;BME280;62544;50.826;14.354;2023-03-15T08:42:29;98966.77;;;5.88;56.26
74181;BME280;62544;50.826;14.354;2023-03-15T08:46:53;98970.58;;;5.78;50.81
74181;BME280;62544;50.826;14.354;2023-03-15T08:51:18;98976.07;;;5.64;51.87
74181;BME280;62544;50.826;14.354;2023-03-15T08:55:41;98979.53;;;5.64;51.24
74181;BME280;62544;50.826;14.354;2023-03-15T09:00:06;98980.76;;;5.83;46.19
74181;BME280;62544;50.826;14.354;2023-03-15T09:04:30;98983.81;;;6.12;47.61
74181;BME280;62544;50.826;14.354;2023-03-15T09:08:53;98984.62;;;6.31;48.59
74181;BME280;62544;50.826;14.354;2023-03-15T09:13:17;98987.16;;;6.41;49.22
74181;BME280;62544;50.826;14.354;2023-03-15T09:17:41;98988.37;;;6.64;47.50
74181;BME280;62544;50.826;14.354;2023-03-15T09:22:05;98990.05;;;7.20;47.28
74181;BME280;62544;50.826;14.354;2023-03-15T09:26:29;98992.17;;;7.54;44.88
74181;BME280;62544;50.826;14.354;2023-03-15T09:30:53;98994.40;;;7.49;49.25
74181;BME280;62544;50.826;14.354;2023-03-15T09:35:18;98998.38;;;7.45;49.15
74181;BME280;62544;50.826;14.354;2023-03-15T09:39:41;99002.78;;;7.30;49.67
74181;BME280;62544;50.826;14.354;2023-03-15T09:48:30;99008.15;;;7.17;48.69
74181;BME280;62544;50.826;14.354;2023-03-15T09:52:57;99011.99;;;7.21;51.94
74181;BME280;62544;50.826;14.354;2023-03-15T09:57:18;99014.01;;;7.19;49.72
74181;BME280;62544;50.826;14.354;2023-03-15T10:01:41;99016.74;;;7.18;50.81
74181;BME280;62544;50.826;14.354;2023-03-15T10:10:33;99021.86;;;6.99;49.86
74181;BME280;62544;50.826;14.354;2023-03-15T10:23:49;99041.16;;;6.53;55.96
74181;BME280;62544;50.826;14.354;2023-03-15T10:28:12;99051.62;;;6.18;61.69
74181;BME280;62544;50.826;14.354;2023-03-15T10:32:30;99058.14;;;5.87;62.08
74181;BME280;62544;50.826;14.354;2023-03-15T10:36:53;99062.72;;;5.66;62.93
74181;BME280;62544;50.826;14.354;2023-03-15T10:41:35;99066.19;;;5.67;61.28
74181;BME280;62544;50.826;14.354;2023-03-15T10:45:41;99068.75;;;5.76;61.51
74181;BME280;62544;50.826;14.354;2023-03-15T10:50:05;99069.62;;;5.84;60.73
74181;BME280;62544;50.826;14.354;2023-03-15T10:54:30;99069.19;;;6.00;58.85
74181;BME280;62544;50.826;14.354;2023-03-15T10:58:54;99068.64;;;6.08;58.87
74181;BME280;62544;50.826;14.354;2023-03-15T11:03:18;99067.85;;;6.12;60.20
74181;BME280;62544;50.826;14.354;2023-03-15T11:07:54;99067.30;;;6.37;56.44
74181;BME280;62544;50.826;14.354;2023-03-15T11:12:06;99066.55;;;6.56;56.42
74181;BME280;62544;50.826;14.354;2023-03-15T11:16:33;99065.96;;;6.73;58.21
74181;BME280;62544;50.826;14.354;2023-03-15T11:20:54;99063.28;;;6.97;56.77
74181;BME280;62544;50.826;14.354;2023-03-15T11:25:17;99063.15;;;7.14;56.64
74181;BME280;62544;50.826;14.354;2023-03-15T11:29:50;99061.30;;;7.30;53.31
74181;BME280;62544;50.826;14.354;2023-03-15T11:34:11;99059.63;;;7.25;56.42
74181;BME280;62544;50.826;14.354;2023-03-15T11:38:30;99059.86;;;7.00;57.59
74181;BME280;62544;50.826;14.354;2023-03-15T11:43:07;99060.76;;;6.80;59.90
74181;BME280;62544;50.826;14.354;2023-03-15T11:47:21;99060.89;;;6.68;58.61
74181;BME280;62544;50.826;14.354;2023-03-15T11:51:41;99060.86;;;6.62;58.99
74181;BME280;62544;50.826;14.354;2023-03-15T11:56:22;99059.03;;;6.65;60.28
74181;BME280;62544;50.826;14.354;2023-03-15T12:04:53;99057.17;;;7.03;56.86
74181;BME280;62544;50.826;14.354;2023-03-15T12:13:49;99072.20;;;6.35;74.06
74181;BME280;62544;50.826;14.354;2023-03-15T12:18:05;99078.97;;;5.95;74.83
74181;BME280;62544;50.826;14.354;2023-03-15T12:22:29;99082.95;;;5.64;74.82
74181;BME280;62544;50.826;14.354;2023-03-15T12:27:00;99085.25;;;5.63;74.34
74181;BME280;62544;50.826;14.354;2023-03-15T12:31:17;99085.97;;;5.90;69.88
74181;BME280;62544;50.826;14.354;2023-03-15T12:35:41;99085.53;;;6.31;67.70
74181;BME280;62544;50.826;14.354;2023-03-15T12:44:36;99086.98;;;6.50;68.24
74181;BME280;62544;50.826;14.354;2023-03-15T12:57:51;99089.39;;;6.47;68.58
74181;BME280;62544;50.826;14.354;2023-03-15T13:15:22;99093.09;;;5.85;71.55
74181;BME280;62544;50.826;14.354;2023-03-15T13:19:44;99094.98;;;5.76;71.15
74181;BME280;62544;50.826;14.354;2023-03-15T13:24:09;99094.89;;;5.88;67.09
74181;BME280;62544;50.826;14.354;2023-03-15T13:28:31;99095.14;;;6.16;62.19
74181;BME280;62544;50.826;14.354;2023-03-15T13:33:18;99095.14;;;6.67;55.55
74181;BME280;62544;50.826;14.354;2023-03-15T13:37:21;99095.00;;;7.36;52.97
74181;BME280;62544;50.826;14.354;2023-03-15T13:41:41;99094.76;;;7.99;52.75
74181;BME280;62544;50.826;14.354;2023-03-15T13:46:05;99095.25;;;8.26;54.63
74181;BME280;62544;50.826;14.354;2023-03-15T13:50:29;99096.34;;;8.51;53.38
74181;BME280;62544;50.826;14.354;2023-03-15T13:54:53;99098.60;;;8.59;55.65
74181;BME280;62544;50.826;14.354;2023-03-15T13:59:17;99102.29;;;8.19;58.98
74181;BME280;62544;50.826;14.354;2023-03-15T14:03:42;99105.42;;;7.79;59.14
74181;BME280;62544;50.826;14.354;2023-03-15T14:08:06;99107.76;;;7.47;57.45
74181;BME280;62544;50.826;14.354;2023-03-15T14:12:29;99108.81;;;7.36;59.08
74181;BME280;62544;50.826;14.354;2023-03-15T14:16:55;99108.17;;;7.40;58.23
74181;BME280;62544;50.826;14.354;2023-03-15T14:21:18;99108.14;;;7.37;57.39
74181;BME280;62544;50.826;14.354;2023-03-15T14:25:42;99109.25;;;7.12;59.82
74181;BME280;62544;50.826;14.354;2023-03-15T14:30:16;99108.93;;;6.92;61.85
74181;BME280;62544;50.826;14.354;2023-03-15T14:34:36;99108.44;;;6.89;59.90
74181;BME280;62544;50.826;14.354;2023-03-15T14:38:54;99108.62;;;6.95;57.96
74181;BME280;62544;50.826;14.354;2023-03-15T14:43:17;99109.80;;;6.88;57.14
74181;BME280;62544;50.826;14.354;2023-03-15T14:47:45;99109.69;;;6.72;57.87
74181;BME280;62544;50.826;14.354;2023-03-15T14:52:05;99111.02;;;6.47;62.41
74181;BME280;62544;50.826;14.354;2023-03-15T14:56:29;99111.43;;;6.31;60.80
74181;BME280;62544;50.826;14.354;2023-03-15T15:00:53;99111.05;;;6.34;59.69
74181;BME280;62544;50.826;14.354;2023-03-15T15:05:19;99110.36;;;6.48;57.47
74181;BME280;62544;50.826;14.354;2023-03-15T15:09:43;99112.55;;;6.61;57.99
74181;BME280;62544;50.826;14.354;2023-03-15T15:14:09;99114.98;;;6.64;57.90
74181;BME280;62544;50.826;14.354;2023-03-15T15:18:30;99119.07;;;6.61;58.91
74181;BME280;62544;50.826;14.354;2023-03-15T15:22:53;99126.56;;;6.52;61.23
74181;BME280;62544;50.826;14.354;2023-03-15T15:27:17;99135.69;;;6.07;69.75
74181;BME280;62544;50.826;14.354;2023-03-15T15:31:41;99145.09;;;5.43;76.68
74181;BME280;62544;50.826;14.354;2023-03-15T15:36:05;99154.69;;;4.85;79.39
74181;BME280;62544;50.826;14.354;2023-03-15T15:40:30;99165.01;;;4.34;83.06
74181;BME280;62544;50.826;14.354;2023-03-15T15:44:53;99173.27;;;4.00;82.22
74181;BME280;62544;50.826;14.354;2023-03-15T15:49:17;99179.33;;;3.82;79.75
74181;BME280;62544;50.826;14.354;2023-03-15T15:53:41;99181.52;;;3.73;77.91
74181;BME280;62544;50.826;14.354;2023-03-15T15:58:05;99181.18;;;3.70;79.45
74181;BME280;62544;50.826;14.354;2023-03-15T16:02:29;99181.93;;;3.72;78.71
74181;BME280;62544;50.826;14.354;2023-03-15T16:06:54;99181.94;;;3.77;79.02
74181;BME280;62544;50.826;14.354;2023-03-15T16:11:17;99183.59;;;3.82;78.73
74181;BME280;62544;50.826;14.354;2023-03-15T16:15:41;99187.62;;;3.85;78.94
74181;BME280;62544;50.826;14.354;2023-03-15T16:20:06;99192.71;;;3.83;80.02
74181;BME280;62544;50.826;14.354;2023-03-15T16:24:29;99197.08;;;3.79;80.00
74181;BME280;62544;50.826;14.354;2023-03-15T16:28:53;99201.09;;;3.80;79.24
74181;BME280;62544;50.826;14.354;2023-03-15T16:33:18;99206.03;;;3.83;78.64
74181;BME280;62544;50.826;14.354;2023-03-15T16:37:41;99211.11;;;3.83;78.76
74181;BME280;62544;50.826;14.354;2023-03-15T16:42:05;99215.55;;;3.80;78.83
74181;BME280;62544;50.826;14.354;2023-03-15T16:46:29;99221.42;;;3.71;80.45
74181;BME280;62544;50.826;14.354;2023-03-15T16:50:53;99226.14;;;3.56;81.09
74181;BME280;62544;50.826;14.354;2023-03-15T16:55:19;99230.83;;;3.41;80.79
74181;BME280;62544;50.826;14.354;2023-03-15T16:59:41;99237.66;;;3.24;81.06
74181;BME280;62544;50.826;14.354;2023-03-15T17:04:05;99246.80;;;3.03;84.06
74181;BME280;62544;50.826;14.354;2023-03-15T17:08:29;99254.61;;;2.82;83.46
74181;BME280;62544;50.826;14.354;2023-03-15T17:12:54;99263.05;;;2.62;84.03
74181;BME280;62544;50.826;14.354;2023-03-15T17:17:17;99270.09;;;2.41;86.18
74181;BME280;62544;50.826;14.354;2023-03-15T17:21:42;99277.29;;;2.16;88.16
74181;BME280;62544;50.826;14.354;2023-03-15T17:26:10;99284.83;;;1.94;86.86
74181;BME280;62544;50.826;14.354;2023-03-15T17:30:30;99291.97;;;1.75;85.80
74181;BME280;62544;50.826;14.354;2023-03-15T17:34:53;99298.83;;;1.54;85.94
74181;BME280;62544;50.826;14.354;2023-03-15T17:39:17;99305.81;;;1.33;86.58
74181;BME280;62544;50.826;14.354;2023-03-15T17:43:42;99313.65;;;1.14;87.66
74181;BME280;62544;50.826;14.354;2023-03-15T17:48:05;99321.20;;;0.95;87.12
74181;BME280;62544;50.826;14.354;2023-03-15T17:52:29;99327.86;;;0.77;87.64
74181;BME280;62544;50.826;14.354;2023-03-15T17:56:53;99335.41;;;0.59;87.38
74181;BME280;62544;50.826;14.354;2023-03-15T18:01:18;99343.64;;;0.45;87.25
74181;BME280;62544;50.826;14.354;2023-03-15T18:05:42;99350.89;;;0.30;88.15
74181;BME280;62544;50.826;14.354;2023-03-15T18:10:06;99358.17;;;0.18;87.47
74181;BME280;62544;50.826;14.354;2023-03-15T18:14:29;99364.12;;;0.05;87.86
74181;BME280;62544;50.826;14.354;2023-03-15T18:18:53;99370.08;;;-0.07;87.66
74181;BME280;62544;50.826;14.354;2023-03-15T18:23:18;99375.46;;;-0.18;87.11
74181;BME280;62544;50.826;14.354;2023-03-15T18:27:42;99381.77;;;-0.28;86.69
74181;BME280;62544;50.826;14.354;2023-03-15T18:32:06;99386.91;;;-0.37;87.07
74181;BME280;62544;50.826;14.354;2023-03-15T18:36:30;99392.49;;;-0.45;88.63
74181;BME280;62544;50.826;14.354;2023-03-15T18:40:54;99398.89;;;-0.51;87.70
74181;BME280;62544;50.826;14.354;2023-03-15T18:45:22;99403.97;;;-0.54;87.98
74181;BME280;62544;50.826;14.354;2023-03-15T18:49:42;99408.46;;;-0.54;87.87
74181;BME280;62544;50.826;14.354;2023-03-15T18:54:06;99414.31;;;-0.52;88.40
74181;BME280;62544;50.826;14.354;2023-03-15T18:58:30;99418.34;;;-0.47;88.36
74181;BME280;62544;50.826;14.354;2023-03-15T19:02:54;99421.41;;;-0.40;88.34
74181;BME280;62544;50.826;14.354;2023-03-15T19:07:18;99424.84;;;-0.32;88.31
74181;BME280;62544;50.826;14.354;2023-03-15T19:11:42;99427.59;;;-0.23;88.06
74181;BME280;62544;50.826;14.354;2023-03-15T19:16:06;99431.97;;;-0.14;88.40
74181;BME280;62544;50.826;14.354;2023-03-15T19:20:30;99436.76;;;-0.05;88.38
74181;BME280;62544;50.826;14.354;2023-03-15T19:24:54;99441.63;;;0.05;88.36
74181;BME280;62544;50.826;14.354;2023-03-15T19:29:18;99446.09;;;0.16;88.19
74181;BME280;62544;50.826;14.354;2023-03-15T19:33:41;99449.69;;;0.24;88.67
74181;BME280;62544;50.826;14.354;2023-03-15T19:38:06;99454.44;;;0.28;88.89
74181;BME280;62544;50.826;14.354;2023-03-15T19:42:30;99458.78;;;0.29;88.40
74181;BME280;62544;50.826;14.354;2023-03-15T19:46:54;99462.09;;;0.31;88.85
74181;BME280;62544;50.826;14.354;2023-03-15T19:51:18;99466.05;;;0.33;88.66
74181;BME280;62544;50.826;14.354;2023-03-15T19:55:42;99470.65;;;0.35;88.66
74181;BME280;62544;50.826;14.354;2023-03-15T20:00:06;99476.61;;;0.37;88.66
74181;BME280;62544;50.826;14.354;2023-03-15T20:04:30;99482.30;;;0.37;88.42
74181;BME280;62544;50.826;14.354;2023-03-15T20:08:54;99488.51;;;0.37;88.72
74181;BME280;62544;50.826;14.354;2023-03-15T20:13:17;99494.55;;;0.36;88.87
74181;BME280;62544;50.826;14.354;2023-03-15T20:17:42;99500.30;;;0.33;88.59
74181;BME280;62544;50.826;14.354;2023-03-15T20:22:05;99505.91;;;0.29;88.45
74181;BME280;62544;50.826;14.354;2023-03-15T20:26:29;99511.01;;;0.26;88.73
74181;BME280;62544;50.826;14.354;2023-03-15T20:30:53;99515.77;;;0.23;88.81
74181;BME280;62544;50.826;14.354;2023-03-15T20:35:18;99520.78;;;0.14;89.97
74181;BME280;62544;50.826;14.354;2023-03-15T20:39:41;99524.18;;;0.08;89.49
74181;BME280;62544;50.826;14.354;2023-03-15T20:44:06;99528.28;;;0.06;89.03
74181;BME280;62544;50.826;14.354;2023-03-15T20:48:30;99532.67;;;0.02;89.25
74181;BME280;62544;50.826;14.354;2023-03-15T20:52:53;99538.90;;;-0.01;88.62
74181;BME280;62544;50.826;14.354;2023-03-15T20:57:17;99545.54;;;-0.03;88.95
74181;BME280;62544;50.826;14.354;2023-03-15T21:01:42;99552.06;;;-0.04;88.31
74181;BME280;62544;50.826;14.354;2023-03-15T21:06:06;99558.95;;;-0.06;89.25
74181;BME280;62544;50.826;14.354;2023-03-15T21:10:29;99564.23;;;-0.10;88.92
74181;BME280;62544;50.826;14.354;2023-03-15T21:14:54;99569.48;;;-0.16;88.90
74181;BME280;62544;50.826;14.354;2023-03-15T21:19:17;99574.34;;;-0.21;89.19
74181;BME280;62544;50.826;14.354;2023-03-15T21:23:41;99579.06;;;-0.28;89.66
74181;BME280;62544;50.826;14.354;2023-03-15T21:28:05;99582.76;;;-0.35;90.32
74181;BME280;62544;50.826;14.354;2023-03-15T21:32:29;99588.20;;;-0.42;90.59
74181;BME280;62544;50.826;14.354;2023-03-15T21:36:53;99593.41;;;-0.49;91.50
74181;BME280;62544;50.826;14.354;2023-03-15T21:41:17;99597.38;;;-0.52;91.50
74181;BME280;62544;50.826;14.354;2023-03-15T21:45:42;99601.68;;;-0.53;90.58
74181;BME280;62544;50.826;14.354;2023-03-15T21:50:07;99604.92;;;-0.51;89.73
74181;BME280;62544;50.826;14.354;2023-03-15T21:54:29;99609.01;;;-0.50;89.78
74181;BME280;62544;50.826;14.354;2023-03-15T21:58:53;99613.02;;;-0.53;90.53
74181;BME280;62544;50.826;14.354;2023-03-15T22:03:17;99616.32;;;-0.55;89.86
74181;BME280;62544;50.826;14.354;2023-03-15T22:07:41;99620.04;;;-0.57;89.97
74181;BME280;62544;50.826;14.354;2023-03-15T22:12:06;99624.24;;;-0.61;90.30
74181;BME280;62544;50.826;14.354;2023-03-15T22:16:29;99627.84;;;-0.60;89.56
74181;BME280;62544;50.826;14.354;2023-03-15T22:20:54;99631.43;;;-0.60;89.46
74181;BME280;62544;50.826;14.354;2023-03-15T22:25:17;99635.60;;;-0.63;89.47
74181;BME280;62544;50.826;14.354;2023-03-15T22:29:41;99638.28;;;-0.64;88.85
74181;BME280;62544;50.826;14.354;2023-03-15T22:34:05;99641.88;;;-0.67;89.03
74181;BME280;62544;50.826;14.354;2023-03-15T22:38:29;99644.36;;;-0.68;88.92
74181;BME280;62544;50.826;14.354;2023-03-15T22:42:53;99646.17;;;-0.73;89.30
74181;BME280;62544;50.826;14.354;2023-03-15T22:47:17;99647.10;;;-0.74;89.02
74181;BME280;62544;50.826;14.354;2023-03-15T22:51:41;99647.92;;;-0.78;88.86
74181;BME280;62544;50.826;14.354;2023-03-15T22:56:05;99649.53;;;-0.79;88.97
74181;BME280;62544;50.826;14.354;2023-03-15T23:00:29;99651.43;;;-0.78;88.10
74181;BME280;62544;50.826;14.354;2023-03-15T23:04:53;99653.22;;;-0.78;87.74
74181;BME280;62544;50.826;14.354;2023-03-15T23:09:17;99655.18;;;-0.81;88.07
74181;BME280;62544;50.826;14.354;2023-03-15T23:13:41;99657.31;;;-0.83;88.46
74181;BME280;62544;50.826;14.354;2023-03-15T23:18:05;99660.82;;;-0.84;87.82
74181;BME280;62544;50.826;14.354;2023-03-15T23:22:29;99664.04;;;-0.87;87.72
74181;BME280;62544;50.826;14.354;2023-03-15T23:26:53;99667.89;;;-0.89;87.65
74181;BME280;62544;50.826;14.354;2023-03-15T23:31:17;99670.25;;;-0.95;88.07
74181;BME280;62544;50.826;14.354;2023-03-15T23:35:41;99673.95;;;-1.02;88.16
74181;BME280;62544;50.826;14.354;2023-03-15T23:40:06;99676.96;;;-1.09;87.84
74181;BME280;62544;50.826;14.354;2023-03-15T23:44:30;99680.94;;;-1.20;88.17
74181;BME280;62544;50.826;14.354;2023-03-15T23:48:53;99684.04;;;-1.33;88.21
74181;BME280;62544;50.826;14.354;2023-03-15T23:53:17;99688.56;;;-1.45;87.68
74181;BME280;62544;50.826;14.354;2023-03-15T23:57:41;99693.33;;;-1.53;87.24
